createdAt,value
2023-01-22T00:02:59.379Z,101370.97
2023-01-22T00:08:00.857Z,101370.78
2023-01-22T00:13:02.428Z,101367.47
2023-01-22T00:18:03.879Z,101365.81
2023-01-22T00:23:05.419Z,101365.78
2023-01-22T00:28:07.551Z,101355.75
2023-01-22T00:33:09.125Z,101355.16
2023-01-22T00:38:10.512Z,101352.84
2023-01-22T00:43:12.083Z,101344.50
2023-01-22T00:48:15.016Z,101347.94
2023-01-22T00:53:16.414Z,101349.78
2023-01-22T00:58:18.011Z,101344.63
2023-01-22T01:03:32.395Z,101336.03
2023-01-22T01:08:37.159Z,101339.31
2023-01-22T01:13:42.056Z,101328.47
2023-01-22T01:18:43.882Z,101324.09
2023-01-22T01:23:46.376Z,101329.06
2023-01-22T01:28:48.063Z,101329.16
2023-01-22T01:33:49.808Z,101329.19
2023-01-22T01:38:52.009Z,101332.63
2023-01-22T01:44:12.507Z,101333.53
2023-01-22T01:49:29.583Z,101332.00
2023-01-22T01:54:31.635Z,101327.03
2023-01-22T01:59:34.119Z,101321.19
2023-01-22T02:04:35.523Z,101327.88
2023-01-22T02:09:37.104Z,101318.69
2023-01-22T02:14:41.625Z,101318.84
2023-01-22T02:19:44.067Z,101322.38
2023-01-22T02:24:46.021Z,101322.38
2023-01-22T02:29:47.490Z,101311.44
2023-01-22T02:34:49.330Z,101293.91
2023-01-22T02:39:51.196Z,101291.50
2023-01-22T02:44:53.511Z,101297.53
2023-01-22T02:49:54.933Z,101290.63
2023-01-22T02:54:56.846Z,101294.59
2023-01-22T02:59:58.639Z,101288.78
2023-01-22T03:05:03.525Z,101298.13
2023-01-22T03:10:05.554Z,101289.75
2023-01-22T03:15:26.331Z,101282.31
2023-01-22T03:20:46.267Z,101284.09
2023-01-22T03:25:47.649Z,101284.22
2023-01-22T03:30:49.046Z,101289.31
2023-01-22T03:35:50.479Z,101284.41
2023-01-22T03:40:51.868Z,101283.66
2023-01-22T03:45:53.280Z,101282.00
2023-01-22T03:50:54.742Z,101283.69
2023-01-22T03:55:58.332Z,101279.50
2023-01-22T04:01:05.442Z,101281.88
2023-01-22T04:06:09.042Z,101278.66
2023-01-22T04:11:10.964Z,101278.41
2023-01-22T04:16:13.989Z,101286.78
2023-01-22T04:21:15.534Z,101286.84
2023-01-22T04:26:17.040Z,101296.16
2023-01-22T04:31:18.724Z,101292.72
2023-01-22T04:36:20.290Z,101291.06
2023-01-22T04:41:21.662Z,101291.16
2023-01-22T04:46:23.101Z,101292.03
2023-01-22T04:51:24.689Z,101294.59
2023-01-22T04:56:26.206Z,101297.06
2023-01-22T05:01:27.670Z,101293.88
2023-01-22T05:06:30.480Z,101293.91
2023-01-22T05:11:31.912Z,101297.28
2023-01-22T05:16:34.868Z,101298.91
2023-01-22T05:21:36.289Z,101298.91
2023-01-22T05:26:37.715Z,101306.47
2023-01-22T05:31:40.299Z,101299.63
2023-01-22T05:36:41.735Z,101297.91
2023-01-22T05:41:43.408Z,101302.78
2023-01-22T05:46:44.834Z,101312.00
2023-01-22T05:51:46.331Z,101313.78
2023-01-22T05:56:47.744Z,101315.50
2023-01-22T06:01:49.151Z,101322.16
2023-01-22T06:06:50.607Z,101325.50
2023-01-22T06:11:52.131Z,101334.81
2023-01-22T06:16:53.644Z,101330.75
2023-01-22T06:21:55.102Z,101336.69
2023-01-22T06:26:56.558Z,101339.25
2023-01-22T06:31:57.984Z,101341.63
2023-01-22T06:36:59.536Z,101339.16
2023-01-22T06:42:00.976Z,101340.88
2023-01-22T06:47:02.384Z,101349.88
2023-01-22T06:52:06.228Z,101344.03
2023-01-22T06:57:07.683Z,101346.69
2023-01-22T07:02:16.546Z,101350.09
2023-01-22T07:07:18.646Z,101347.69
2023-01-22T07:12:20.103Z,101353.72
2023-01-22T07:17:21.503Z,101358.88
2023-01-22T07:22:22.901Z,101363.59
2023-01-22T07:27:24.489Z,101375.31
2023-01-22T07:32:26.046Z,101374.59
2023-01-22T07:37:27.553Z,101386.31
2023-01-22T07:42:28.939Z,101387.25
2023-01-22T07:47:30.394Z,101394.06
2023-01-22T07:52:31.868Z,101395.97
2023-01-22T07:57:33.295Z,101404.59
2023-01-22T08:02:34.792Z,101413.19
2023-01-22T08:07:36.439Z,101406.25
2023-01-22T08:12:41.324Z,101408.50
2023-01-22T08:17:42.882Z,101412.03
2023-01-22T08:22:45.446Z,101413.66
2023-01-22T08:27:46.903Z,101418.56
2023-01-22T08:32:50.330Z,101430.09
2023-01-22T08:37:51.727Z,101431.88
2023-01-22T08:42:54.614Z,101440.34
2023-01-22T08:47:59.316Z,101439.38
2023-01-22T08:53:00.735Z,101440.84
2023-01-22T08:58:02.153Z,101447.59
2023-01-22T09:03:03.644Z,101449.19
2023-01-22T09:08:05.497Z,101443.16
2023-01-22T09:13:06.948Z,101450.59
2023-01-22T09:18:08.383Z,101456.41
2023-01-22T09:23:09.802Z,101457.44
2023-01-22T09:28:12.364Z,101463.34
2023-01-22T09:33:13.902Z,101474.50
2023-01-22T09:38:15.898Z,101473.72
2023-01-22T09:43:26.112Z,101467.09
2023-01-22T09:48:36.657Z,101475.44
2023-01-22T09:53:38.229Z,101477.88
2023-01-22T09:58:39.973Z,101490.44
2023-01-22T10:03:46.168Z,101488.59
2023-01-22T10:08:59.259Z,101491.00
2023-01-22T10:14:02.742Z,101489.34
2023-01-22T10:19:19.764Z,101488.34
2023-01-22T10:24:21.241Z,101491.63
2023-01-22T10:29:27.606Z,101484.31
2023-01-22T10:34:32.506Z,101495.47
2023-01-22T10:39:48.060Z,101487.88
2023-01-22T10:44:50.578Z,101485.41
2023-01-22T10:50:21.638Z,101484.66
2023-01-22T10:55:28.149Z,101488.84
2023-01-22T11:00:51.481Z,101490.72
2023-01-22T11:06:00.037Z,101489.22
2023-01-22T11:11:05.895Z,101486.09
2023-01-22T11:16:16.364Z,101488.91
2023-01-22T11:21:25.428Z,101482.44
2023-01-22T11:26:57.005Z,101489.41
2023-01-22T11:32:22.360Z,101477.69
2023-01-22T11:37:41.373Z,101477.88
2023-01-22T11:43:01.880Z,101483.00
2023-01-22T11:48:20.208Z,101480.59
2023-01-22T11:53:36.743Z,101479.75
2023-01-22T11:58:49.694Z,101473.97
2023-01-22T12:04:15.145Z,101475.00
2023-01-22T12:09:24.627Z,101464.22
2023-01-22T12:14:35.260Z,101471.91
2023-01-22T12:19:55.013Z,101466.00
2023-01-22T12:25:03.192Z,101463.50
2023-01-22T12:30:23.606Z,101465.31
2023-01-22T12:35:27.246Z,101462.06
2023-01-22T12:40:59.178Z,101461.34
2023-01-22T12:46:25.551Z,101464.75
2023-01-22T12:51:51.211Z,101465.38
2023-01-22T12:57:10.491Z,101466.13
2023-01-22T13:02:28.391Z,101466.03
2023-01-22T13:07:29.873Z,101463.78
2023-01-22T13:12:47.772Z,101470.66
2023-01-22T13:18:06.210Z,101475.63
2023-01-22T13:23:12.221Z,101476.19
2023-01-22T13:28:17.925Z,101480.41
2023-01-22T13:33:19.517Z,101479.44
2023-01-22T13:38:26.981Z,101482.81
2023-01-22T13:43:30.607Z,101489.41
2023-01-22T13:48:32.409Z,101491.78
2023-01-22T13:53:41.653Z,101496.59
2023-01-22T13:58:48.357Z,101493.22
2023-01-22T14:04:02.023Z,101495.78
2023-01-22T14:09:03.856Z,101495.91
2023-01-22T14:14:15.931Z,101501.00
2023-01-22T14:19:17.830Z,101500.31
2023-01-22T14:24:19.424Z,101497.91
2023-01-22T14:29:20.957Z,101507.97
2023-01-22T14:34:22.711Z,101504.59
2023-01-22T14:39:24.460Z,101516.28
2023-01-22T14:44:26.033Z,101510.44
2023-01-22T14:49:27.568Z,101520.63
2023-01-22T14:54:29.144Z,101513.91
2023-01-22T14:59:30.943Z,101511.38
2023-01-22T15:04:32.410Z,101514.47
2023-01-22T15:09:33.950Z,101519.19
2023-01-22T15:14:35.637Z,101525.78
2023-01-22T15:19:41.446Z,101532.28
2023-01-22T15:24:43.839Z,101539.72
2023-01-22T15:29:46.330Z,101545.28
2023-01-22T15:34:47.801Z,101547.69
2023-01-22T15:39:49.724Z,101550.84
2023-01-22T15:44:51.357Z,101556.56
2023-01-22T15:49:52.908Z,101563.13
2023-01-22T15:54:54.497Z,101568.91
2023-01-22T15:59:56.089Z,101570.47
2023-01-22T16:04:57.578Z,101568.78
2023-01-22T16:09:59.037Z,101576.34
2023-01-22T16:15:00.553Z,101578.06
2023-01-22T16:20:03.547Z,101583.97
2023-01-22T16:25:05.343Z,101584.00
2023-01-22T16:30:07.712Z,101583.16
2023-01-22T16:35:10.744Z,101587.34
2023-01-22T16:40:13.468Z,101582.31
2023-01-22T16:45:14.901Z,101592.31
2023-01-22T16:50:16.870Z,101593.09
2023-01-22T16:55:18.578Z,101599.84
2023-01-22T17:00:20.794Z,101599.09
2023-01-22T17:05:22.366Z,101599.09
2023-01-22T17:10:23.872Z,101604.88
2023-01-22T17:15:25.368Z,101618.25
2023-01-22T17:20:26.848Z,101616.50
2023-01-22T17:25:28.443Z,101623.91
2023-01-22T17:30:31.594Z,101629.66
2023-01-22T17:35:33.030Z,101629.63
2023-01-22T17:40:36.891Z,101637.97
2023-01-22T17:45:39.953Z,101642.91
2023-01-22T17:50:41.453Z,101639.56
2023-01-22T17:55:42.882Z,101647.13
2023-01-22T18:00:44.299Z,101648.84
2023-01-22T18:05:45.763Z,101661.50
2023-01-22T18:10:47.267Z,101656.50
2023-01-22T18:15:49.401Z,101658.22
2023-01-22T18:20:50.892Z,101666.53
2023-01-22T18:25:58.160Z,101669.88
2023-01-22T18:31:08.541Z,101675.72
2023-01-22T18:36:12.754Z,101679.94
2023-01-22T18:41:20.308Z,101679.09
2023-01-22T18:46:24.514Z,101684.13
2023-01-22T18:51:28.109Z,101675.72
2023-01-22T18:56:29.626Z,101681.56
2023-01-22T19:01:37.340Z,101683.31
2023-01-22T19:06:39.030Z,101685.06
2023-01-22T19:11:43.007Z,101681.66
2023-01-22T19:16:45.148Z,101682.50
2023-01-22T19:21:52.392Z,101686.69
2023-01-22T19:26:57.702Z,101685.72
2023-01-22T19:31:59.293Z,101701.56
2023-01-22T19:37:02.291Z,101702.50
2023-01-22T19:42:06.722Z,101705.91
2023-01-22T19:47:09.279Z,101716.81
2023-01-22T19:52:13.242Z,101707.59
2023-01-22T19:57:15.528Z,101713.31
2023-01-22T20:02:20.751Z,101725.88
2023-01-22T20:07:22.645Z,101728.34
2023-01-22T20:12:24.065Z,101732.38
2023-01-22T20:17:27.558Z,101731.41
2023-01-22T20:22:29.002Z,101740.66
2023-01-22T20:27:31.673Z,101733.13
2023-01-22T20:32:33.203Z,101730.63
2023-01-22T20:37:34.679Z,101744.91
2023-01-22T20:42:36.276Z,101740.69
2023-01-22T20:47:38.166Z,101750.69
2023-01-22T20:52:39.635Z,101755.75
2023-01-22T20:57:41.751Z,101740.59
2023-01-22T21:02:43.272Z,101754.06
2023-01-22T21:07:44.808Z,101753.22
2023-01-22T21:12:46.990Z,101754.88
2023-01-22T21:17:48.560Z,101755.66
2023-01-22T21:22:50.275Z,101761.53
2023-01-22T21:27:51.793Z,101752.25
2023-01-22T21:32:53.396Z,101754.72
2023-01-22T21:37:54.876Z,101757.94
2023-01-22T21:43:15.092Z,101755.38
2023-01-22T21:48:16.515Z,101763.69
2023-01-22T21:53:17.940Z,101761.97
2023-01-22T21:58:20.276Z,101751.94
2023-01-22T22:03:21.693Z,101760.25
2023-01-22T22:08:23.143Z,101756.00
2023-01-22T22:13:24.563Z,101761.66
2023-01-22T22:18:25.979Z,101764.19
2023-01-22T22:23:27.568Z,101769.25
2023-01-22T22:28:30.235Z,101760.88
2023-01-22T22:33:31.924Z,101762.53
2023-01-22T22:38:33.711Z,101769.16
2023-01-22T22:43:37.269Z,101770.84
2023-01-22T22:48:38.662Z,101770.06
2023-01-22T22:53:40.924Z,101765.16
2023-01-22T22:58:42.427Z,101765.22
2023-01-22T23:03:44.077Z,101768.56
2023-01-22T23:08:48.315Z,101779.44
2023-01-22T23:13:50.027Z,101778.59
2023-01-22T23:18:51.922Z,101779.34
2023-01-22T23:23:54.308Z,101770.88
2023-01-22T23:28:58.200Z,101773.25
2023-01-22T23:34:01.242Z,101774.91
2023-01-22T23:39:04.090Z,101773.28
2023-01-22T23:44:06.037Z,101771.63
2023-01-22T23:49:07.495Z,101778.19
2023-01-22T23:54:09.342Z,101774.00
2023-01-22T23:59:11.415Z,101778.25
